ETH1ZA FKKD-FZAA
Flight info
| Callsign | ETH1ZA |
|---|---|
| Flight time | 1h 28m |
| Altitude | 35000 |
| Route | DCT DLA UA604 BZ DCT |
| Aircraft | B77W/H-SDE2E3FGHIJ3J5M1P2RWXYZ/SB1D1 |
Departure
| Time | 2026-05-08 07:54 |
|---|---|
| Airport | Douala International Airport (FKKD) |
Arrival
| Time | 2026-05-08 09:22 |
|---|---|
| Airport | Ndjili International Airport (FZAA) |
| Time | Latitude | Longitude | Altitude | Speed | Heading |
|---|---|---|---|---|---|
| 2026-05-08 07:31 | 4.01031 | 9.71674 | 48 ft | 0 kts | 117° |
| 2026-05-08 07:48 | 4.01020 | 9.71694 | 48 ft | 5 kts | 118° |
| 2026-05-08 07:48 | 4.01004 | 9.71723 | 48 ft | 5 kts | 126° |
| 2026-05-08 07:49 | 4.00969 | 9.71735 | 48 ft | 8 kts | 186° |
| 2026-05-08 07:49 | 4.00901 | 9.71712 | 48 ft | 12 kts | 203° |
| 2026-05-08 07:49 | 4.00829 | 9.71679 | 48 ft | 11 kts | 205° |
| 2026-05-08 07:49 | 4.00777 | 9.71629 | 48 ft | 11 kts | 267° |
| 2026-05-08 07:50 | 4.00815 | 9.71540 | 48 ft | 18 kts | 297° |
| 2026-05-08 07:50 | 4.00882 | 9.71408 | 48 ft | 22 kts | 297° |
| 2026-05-08 07:50 | 4.00950 | 9.71275 | 48 ft | 21 kts | 297° |
| 2026-05-08 07:50 | 4.01014 | 9.71147 | 48 ft | 20 kts | 296° |
| 2026-05-08 07:51 | 4.01077 | 9.71026 | 48 ft | 19 kts | 297° |
| 2026-05-08 07:51 | 4.01127 | 9.70906 | 48 ft | 18 kts | 288° |
| 2026-05-08 07:51 | 4.01158 | 9.70834 | 48 ft | 6 kts | 296° |
| 2026-05-08 07:51 | 4.01178 | 9.70819 | 48 ft | 2 kts | 12° |
| 2026-05-08 07:52 | 4.01186 | 9.70827 | 48 ft | 2 kts | 62° |
| 2026-05-08 07:52 | 4.01185 | 9.70838 | 48 ft | 2 kts | 110° |
| 2026-05-08 07:52 | 4.01177 | 9.70848 | 48 ft | 1 kts | 128° |
| 2026-05-08 07:52 | 4.01176 | 9.70850 | 48 ft | 2 kts | 128° |
| 2026-05-08 07:53 | 4.01141 | 9.70899 | 48 ft | 10 kts | 118° |
| 2026-05-08 07:53 | 4.01137 | 9.70908 | 48 ft | 0 kts | 116° |
| 2026-05-08 07:53 | 4.01114 | 9.70953 | 48 ft | 22 kts | 115° |
| 2026-05-08 07:53 | 4.00941 | 9.71294 | 48 ft | 93 kts | 117° |
| 2026-05-08 07:54 | 4.00535 | 9.72096 | 49 ft | 162 kts | 117° |
| 2026-05-08 07:54 | 3.99993 | 9.73165 | 612 ft | 171 kts | 117° |
| 2026-05-08 07:54 | 3.99453 | 9.74240 | 1338 ft | 173 kts | 117° |
| 2026-05-08 07:54 | 3.98884 | 9.75296 | 1968 ft | 172 kts | 124° |
| 2026-05-08 07:55 | 3.97995 | 9.76097 | 2490 ft | 180 kts | 152° |
| 2026-05-08 07:55 | 3.96797 | 9.76404 | 3179 ft | 176 kts | 173° |
| 2026-05-08 07:55 | 3.95607 | 9.76635 | 3778 ft | 176 kts | 164° |
| 2026-05-08 07:55 | 3.94480 | 9.77160 | 4146 ft | 181 kts | 152° |
| 2026-05-08 07:56 | 3.93386 | 9.77839 | 4599 ft | 190 kts | 147° |
| 2026-05-08 07:56 | 3.92258 | 9.78612 | 4967 ft | 203 kts | 145° |
| 2026-05-08 07:56 | 3.91056 | 9.79475 | 5231 ft | 223 kts | 144° |
| 2026-05-08 07:56 | 3.89737 | 9.80418 | 5472 ft | 243 kts | 144° |
| 2026-05-08 07:57 | 3.88283 | 9.81442 | 5670 ft | 267 kts | 145° |
| 2026-05-08 07:57 | 3.86685 | 9.82548 | 5994 ft | 289 kts | 145° |
| 2026-05-08 07:57 | 3.85015 | 9.83690 | 6800 ft | 291 kts | 145° |
| 2026-05-08 07:57 | 3.83343 | 9.84820 | 7750 ft | 291 kts | 145° |
| 2026-05-08 07:58 | 3.81674 | 9.85940 | 8595 ft | 288 kts | 145° |
| 2026-05-08 07:58 | 3.79983 | 9.87067 | 9278 ft | 296 kts | 144° |
| 2026-05-08 07:58 | 3.78257 | 9.88213 | 9996 ft | 298 kts | 144° |
| 2026-05-08 07:58 | 3.76505 | 9.89374 | 10561 ft | 307 kts | 143° |
| 2026-05-08 07:59 | 3.74701 | 9.90567 | 11179 ft | 314 kts | 143° |
| 2026-05-08 07:59 | 3.72857 | 9.91782 | 11890 ft | 320 kts | 142° |
| 2026-05-08 07:59 | 3.70988 | 9.93014 | 12808 ft | 322 kts | 142° |
| 2026-05-08 07:59 | 3.69102 | 9.94260 | 13581 ft | 327 kts | 142° |
| 2026-05-08 08:00 | 3.67182 | 9.95525 | 14360 ft | 333 kts | 142° |
| 2026-05-08 08:00 | 3.65238 | 9.96806 | 15236 ft | 335 kts | 143° |
| 2026-05-08 08:00 | 3.63280 | 9.98096 | 16072 ft | 339 kts | 143° |
| 2026-05-08 08:00 | 3.61300 | 9.99398 | 16856 ft | 343 kts | 143° |
| 2026-05-08 08:01 | 3.59298 | 10.00715 | 17623 ft | 347 kts | 143° |
| 2026-05-08 08:01 | 3.57266 | 10.02051 | 18334 ft | 351 kts | 143° |
| 2026-05-08 08:01 | 3.55190 | 10.03417 | 18787 ft | 365 kts | 144° |
| 2026-05-08 08:01 | 3.53015 | 10.04847 | 18985 ft | 384 kts | 144° |
| 2026-05-08 08:02 | 3.50759 | 10.06330 | 19178 ft | 401 kts | 144° |
| 2026-05-08 08:02 | 3.48384 | 10.07892 | 19469 ft | 415 kts | 144° |
| 2026-05-08 08:02 | 3.45944 | 10.09495 | 19840 ft | 425 kts | 144° |
| 2026-05-08 08:02 | 3.43454 | 10.11132 | 20312 ft | 431 kts | 144° |
| 2026-05-08 08:03 | 3.40926 | 10.12793 | 20782 ft | 437 kts | 144° |
| 2026-05-08 08:03 | 3.38373 | 10.14471 | 21327 ft | 441 kts | 144° |
| 2026-05-08 08:03 | 3.35794 | 10.16166 | 21825 ft | 445 kts | 144° |
| 2026-05-08 08:03 | 3.33194 | 10.17874 | 22314 ft | 450 kts | 145° |
| 2026-05-08 08:04 | 3.30569 | 10.19599 | 22803 ft | 453 kts | 145° |
| 2026-05-08 08:04 | 3.27924 | 10.21337 | 23279 ft | 457 kts | 145° |
| 2026-05-08 08:04 | 3.25256 | 10.23089 | 23720 ft | 461 kts | 145° |
| 2026-05-08 08:04 | 3.22565 | 10.24857 | 24163 ft | 464 kts | 145° |
| 2026-05-08 08:05 | 3.19856 | 10.26636 | 24596 ft | 468 kts | 145° |
| 2026-05-08 08:05 | 3.17126 | 10.28430 | 25014 ft | 471 kts | 144° |
| 2026-05-08 08:05 | 3.14379 | 10.30234 | 25418 ft | 474 kts | 144° |
| 2026-05-08 08:05 | 3.11610 | 10.32052 | 25823 ft | 477 kts | 144° |
| 2026-05-08 08:06 | 3.08822 | 10.33883 | 26203 ft | 481 kts | 144° |
| 2026-05-08 08:06 | 3.06020 | 10.35723 | 26587 ft | 484 kts | 144° |
| 2026-05-08 08:06 | 3.03196 | 10.37577 | 26944 ft | 487 kts | 144° |
| 2026-05-08 08:06 | 3.00356 | 10.39442 | 27300 ft | 490 kts | 144° |
| 2026-05-08 08:07 | 2.97497 | 10.41319 | 27649 ft | 493 kts | 144° |
| 2026-05-08 08:07 | 2.94620 | 10.43208 | 27967 ft | 496 kts | 143° |
| 2026-05-08 08:07 | 2.91724 | 10.45109 | 28281 ft | 499 kts | 143° |
| 2026-05-08 08:07 | 2.88813 | 10.47020 | 28590 ft | 502 kts | 143° |
| 2026-05-08 08:08 | 2.85884 | 10.48943 | 28907 ft | 504 kts | 143° |
| 2026-05-08 08:08 | 2.82942 | 10.50874 | 29190 ft | 507 kts | 143° |
| 2026-05-08 08:08 | 2.79985 | 10.52814 | 29464 ft | 510 kts | 143° |
| 2026-05-08 08:08 | 2.77012 | 10.54765 | 29731 ft | 512 kts | 143° |
| 2026-05-08 08:09 | 2.74027 | 10.56725 | 30015 ft | 514 kts | 143° |
| 2026-05-08 08:09 | 2.71034 | 10.58689 | 30398 ft | 514 kts | 143° |
| 2026-05-08 08:09 | 2.68053 | 10.60646 | 30850 ft | 512 kts | 143° |
| 2026-05-08 08:09 | 2.65081 | 10.62596 | 31268 ft | 511 kts | 143° |
| 2026-05-08 08:10 | 2.62115 | 10.64542 | 31686 ft | 509 kts | 143° |
| 2026-05-08 08:10 | 2.59156 | 10.66483 | 32104 ft | 508 kts | 143° |
| 2026-05-08 08:10 | 2.56203 | 10.68420 | 32496 ft | 507 kts | 143° |
| 2026-05-08 08:10 | 2.53253 | 10.70355 | 32899 ft | 506 kts | 143° |
| 2026-05-08 08:11 | 2.50311 | 10.72283 | 33301 ft | 505 kts | 143° |
| 2026-05-08 08:11 | 2.47377 | 10.74211 | 33708 ft | 504 kts | 143° |
| 2026-05-08 08:11 | 2.44447 | 10.76130 | 34092 ft | 503 kts | 143° |
| 2026-05-08 08:11 | 2.41521 | 10.78047 | 34453 ft | 502 kts | 143° |
| 2026-05-08 08:12 | 2.38602 | 10.79961 | 34829 ft | 501 kts | 143° |
| 2026-05-08 08:12 | 2.35685 | 10.81875 | 35024 ft | 503 kts | 143° |
| 2026-05-08 08:12 | 2.32798 | 10.83768 | 35035 ft | 503 kts | 143° |
| 2026-05-08 08:13 | 2.26959 | 10.87597 | 35041 ft | 501 kts | 143° |
| 2026-05-08 08:13 | 2.21132 | 10.91417 | 35048 ft | 501 kts | 143° |
| 2026-05-08 08:14 | 2.15303 | 10.95237 | 35054 ft | 501 kts | 143° |
| 2026-05-08 08:14 | 2.09468 | 10.99062 | 35061 ft | 501 kts | 143° |
| 2026-05-08 08:15 | 2.03635 | 11.02880 | 35066 ft | 501 kts | 143° |
| 2026-05-08 08:15 | 1.97802 | 11.06701 | 35079 ft | 501 kts | 144° |
| 2026-05-08 08:16 | 1.91973 | 11.10519 | 35080 ft | 501 kts | 144° |
| 2026-05-08 08:16 | 1.86134 | 11.14344 | 35078 ft | 502 kts | 144° |
| 2026-05-08 08:17 | 1.80299 | 11.18167 | 35079 ft | 502 kts | 144° |
| 2026-05-08 08:17 | 1.74461 | 11.21992 | 35079 ft | 502 kts | 144° |
| 2026-05-08 08:18 | 1.68626 | 11.25815 | 35079 ft | 502 kts | 144° |
| 2026-05-08 08:18 | 1.62786 | 11.29640 | 35080 ft | 502 kts | 144° |
| 2026-05-08 08:19 | 1.56945 | 11.33465 | 35080 ft | 502 kts | 144° |
| 2026-05-08 08:19 | 1.51103 | 11.37292 | 35079 ft | 502 kts | 144° |
| 2026-05-08 08:20 | 1.45262 | 11.41117 | 35078 ft | 502 kts | 144° |
| 2026-05-08 08:20 | 1.39421 | 11.44942 | 35076 ft | 502 kts | 144° |
| 2026-05-08 08:21 | 1.33582 | 11.48765 | 35075 ft | 502 kts | 144° |
| 2026-05-08 08:21 | 1.27738 | 11.52590 | 35073 ft | 502 kts | 144° |
| 2026-05-08 08:22 | 1.21933 | 11.56390 | 35070 ft | 502 kts | 144° |
| 2026-05-08 08:22 | 1.16089 | 11.60214 | 35068 ft | 502 kts | 144° |
| 2026-05-08 08:23 | 1.10245 | 11.64039 | 35065 ft | 502 kts | 144° |
| 2026-05-08 08:23 | 1.04406 | 11.67862 | 35063 ft | 502 kts | 144° |
| 2026-05-08 08:24 | 0.98567 | 11.71685 | 35060 ft | 502 kts | 144° |
| 2026-05-08 08:24 | 0.92726 | 11.75509 | 35058 ft | 502 kts | 144° |
| 2026-05-08 08:25 | 0.86886 | 11.79332 | 35055 ft | 502 kts | 144° |
| 2026-05-08 08:25 | 0.81043 | 11.83157 | 35053 ft | 502 kts | 144° |
| 2026-05-08 08:26 | 0.75201 | 11.86980 | 35051 ft | 502 kts | 144° |
| 2026-05-08 08:26 | 0.69357 | 11.90806 | 35048 ft | 502 kts | 144° |
| 2026-05-08 08:27 | 0.63515 | 11.94632 | 35046 ft | 502 kts | 144° |
| 2026-05-08 08:27 | 0.57672 | 11.98459 | 35044 ft | 502 kts | 144° |
| 2026-05-08 08:28 | 0.51827 | 12.02286 | 35042 ft | 502 kts | 144° |
| 2026-05-08 08:28 | 0.45980 | 12.06112 | 35039 ft | 502 kts | 144° |
| 2026-05-08 08:29 | 0.40134 | 12.09934 | 35043 ft | 502 kts | 144° |
| 2026-05-08 08:29 | 0.34287 | 12.13759 | 35041 ft | 503 kts | 144° |
| 2026-05-08 08:30 | 0.28434 | 12.17588 | 35039 ft | 503 kts | 144° |
| 2026-05-08 08:30 | 0.19702 | 12.23301 | 35035 ft | 503 kts | 144° |
| 2026-05-08 08:31 | 0.13852 | 12.27129 | 35032 ft | 503 kts | 144° |
| 2026-05-08 08:31 | 0.08002 | 12.30957 | 35030 ft | 503 kts | 144° |
| 2026-05-08 08:32 | 0.02152 | 12.34785 | 35028 ft | 503 kts | 144° |
| 2026-05-08 08:32 | -0.03697 | 12.38612 | 35026 ft | 502 kts | 145° |
| 2026-05-08 08:33 | -0.08595 | 12.41816 | 35023 ft | 502 kts | 145° |
| 2026-05-08 08:33 | -0.15385 | 12.46259 | 35021 ft | 502 kts | 145° |
| 2026-05-08 08:34 | -0.20281 | 12.49462 | 35019 ft | 502 kts | 144° |
| 2026-05-08 08:34 | -0.26122 | 12.53284 | 35017 ft | 502 kts | 144° |
| 2026-05-08 08:35 | -0.31962 | 12.57106 | 35015 ft | 502 kts | 144° |
| 2026-05-08 08:35 | -0.37763 | 12.60901 | 35013 ft | 501 kts | 145° |
| 2026-05-08 08:36 | -0.43599 | 12.64720 | 35011 ft | 501 kts | 145° |
| 2026-05-08 08:36 | -0.49432 | 12.68537 | 35010 ft | 501 kts | 145° |
| 2026-05-08 08:37 | -0.55260 | 12.72351 | 35008 ft | 501 kts | 145° |
| 2026-05-08 08:37 | -0.61086 | 12.76163 | 35007 ft | 501 kts | 145° |
| 2026-05-08 08:38 | -0.66910 | 12.79975 | 35005 ft | 500 kts | 145° |
| 2026-05-08 08:38 | -0.72736 | 12.83789 | 35004 ft | 500 kts | 145° |
| 2026-05-08 08:39 | -0.78559 | 12.87600 | 35002 ft | 500 kts | 145° |
| 2026-05-08 08:39 | -0.84374 | 12.91406 | 35001 ft | 500 kts | 145° |
| 2026-05-08 08:40 | -0.90192 | 12.95210 | 35000 ft | 499 kts | 145° |
| 2026-05-08 08:40 | -0.96001 | 12.99011 | 34999 ft | 499 kts | 145° |
| 2026-05-08 08:41 | -1.01815 | 13.02816 | 34998 ft | 499 kts | 145° |
| 2026-05-08 08:41 | -1.07620 | 13.06616 | 34997 ft | 499 kts | 145° |
| 2026-05-08 08:42 | -1.13386 | 13.10390 | 34996 ft | 499 kts | 145° |
| 2026-05-08 08:42 | -1.19194 | 13.14191 | 34996 ft | 499 kts | 145° |
| 2026-05-08 08:43 | -1.24995 | 13.17989 | 34995 ft | 499 kts | 145° |
| 2026-05-08 08:43 | -1.30797 | 13.21787 | 34995 ft | 498 kts | 145° |
| 2026-05-08 08:44 | -1.36598 | 13.25585 | 34995 ft | 498 kts | 145° |
| 2026-05-08 08:44 | -1.42395 | 13.29381 | 34994 ft | 498 kts | 145° |
| 2026-05-08 08:45 | -1.48190 | 13.33175 | 34994 ft | 498 kts | 145° |
| 2026-05-08 08:45 | -1.53982 | 13.36969 | 34994 ft | 498 kts | 145° |
| 2026-05-08 08:46 | -1.59772 | 13.40761 | 34994 ft | 497 kts | 145° |
| 2026-05-08 08:46 | -1.65559 | 13.44552 | 34994 ft | 497 kts | 145° |
| 2026-05-08 08:47 | -1.71249 | 13.48477 | 34994 ft | 497 kts | 143° |
| 2026-05-08 08:47 | -1.76888 | 13.52479 | 34994 ft | 497 kts | 143° |
| 2026-05-08 08:48 | -1.82505 | 13.56424 | 34994 ft | 497 kts | 143° |
| 2026-05-08 08:48 | -1.88160 | 13.60385 | 34994 ft | 497 kts | 143° |
| 2026-05-08 08:49 | -1.93817 | 13.64348 | 34994 ft | 497 kts | 144° |
| 2026-05-08 08:49 | -1.99476 | 13.68313 | 34994 ft | 496 kts | 144° |
| 2026-05-08 08:50 | -2.05130 | 13.72275 | 34995 ft | 496 kts | 144° |
| 2026-05-08 08:50 | -2.10781 | 13.76236 | 34995 ft | 496 kts | 144° |
| 2026-05-08 08:51 | -2.16434 | 13.80194 | 34995 ft | 496 kts | 144° |
| 2026-05-08 08:51 | -2.22088 | 13.84156 | 34995 ft | 496 kts | 144° |
| 2026-05-08 08:52 | -2.27755 | 13.88099 | 34995 ft | 496 kts | 144° |
| 2026-05-08 08:52 | -2.33442 | 13.92015 | 34995 ft | 496 kts | 144° |
| 2026-05-08 08:53 | -2.39122 | 13.95935 | 34995 ft | 496 kts | 144° |
| 2026-05-08 08:53 | -2.44766 | 13.99832 | 34996 ft | 496 kts | 144° |
| 2026-05-08 08:54 | -2.50448 | 14.03759 | 34996 ft | 496 kts | 144° |
| 2026-05-08 08:54 | -2.56134 | 14.07686 | 34996 ft | 497 kts | 144° |
| 2026-05-08 08:55 | -2.61818 | 14.11613 | 34997 ft | 497 kts | 144° |
| 2026-05-08 08:55 | -2.67505 | 14.15543 | 34998 ft | 497 kts | 144° |
| 2026-05-08 08:56 | -2.73191 | 14.19474 | 34999 ft | 497 kts | 144° |
| 2026-05-08 08:56 | -2.78880 | 14.23406 | 34999 ft | 497 kts | 144° |
| 2026-05-08 08:57 | -2.84571 | 14.27341 | 35000 ft | 497 kts | 144° |
| 2026-05-08 08:57 | -2.90263 | 14.31277 | 35001 ft | 497 kts | 144° |
| 2026-05-08 08:58 | -2.95961 | 14.35217 | 34671 ft | 500 kts | 144° |
| 2026-05-08 08:58 | -2.98823 | 14.37197 | 34061 ft | 498 kts | 144° |
| 2026-05-08 08:58 | -3.01671 | 14.39167 | 33392 ft | 497 kts | 144° |
| 2026-05-08 08:59 | -3.04511 | 14.41132 | 32714 ft | 496 kts | 144° |
| 2026-05-08 08:59 | -3.07351 | 14.43096 | 32027 ft | 496 kts | 144° |
| 2026-05-08 08:59 | -3.10188 | 14.45059 | 31328 ft | 496 kts | 144° |
| 2026-05-08 08:59 | -3.12985 | 14.46994 | 30634 ft | 495 kts | 144° |
| 2026-05-08 09:00 | -3.15812 | 14.48950 | 30040 ft | 492 kts | 144° |
| 2026-05-08 09:00 | -3.18618 | 14.50892 | 29452 ft | 489 kts | 144° |
| 2026-05-08 09:00 | -3.21408 | 14.52822 | 28855 ft | 486 kts | 144° |
| 2026-05-08 09:00 | -3.24175 | 14.54737 | 28265 ft | 482 kts | 144° |
| 2026-05-08 09:01 | -3.26924 | 14.56640 | 27684 ft | 478 kts | 144° |
| 2026-05-08 09:01 | -3.29647 | 14.58525 | 27111 ft | 474 kts | 144° |
| 2026-05-08 09:01 | -3.32348 | 14.60394 | 26541 ft | 470 kts | 144° |
| 2026-05-08 09:01 | -3.35028 | 14.62249 | 25975 ft | 466 kts | 144° |
| 2026-05-08 09:02 | -3.37682 | 14.64087 | 25410 ft | 462 kts | 144° |
| 2026-05-08 09:02 | -3.40318 | 14.65912 | 24846 ft | 459 kts | 144° |
| 2026-05-08 09:02 | -3.42930 | 14.67720 | 24285 ft | 455 kts | 145° |
| 2026-05-08 09:02 | -3.45520 | 14.69513 | 23725 ft | 451 kts | 145° |
| 2026-05-08 09:03 | -3.48091 | 14.71294 | 23168 ft | 447 kts | 144° |
| 2026-05-08 09:03 | -3.50639 | 14.73059 | 22615 ft | 444 kts | 144° |
| 2026-05-08 09:03 | -3.53168 | 14.74810 | 22062 ft | 440 kts | 144° |
| 2026-05-08 09:03 | -3.55676 | 14.76547 | 21513 ft | 436 kts | 144° |
| 2026-05-08 09:04 | -3.58163 | 14.78269 | 20968 ft | 433 kts | 144° |
| 2026-05-08 09:04 | -3.60626 | 14.79976 | 20425 ft | 429 kts | 144° |
| 2026-05-08 09:04 | -3.63074 | 14.81672 | 19886 ft | 426 kts | 144° |
| 2026-05-08 09:04 | -3.65497 | 14.83350 | 19347 ft | 422 kts | 144° |
| 2026-05-08 09:05 | -3.67899 | 14.85015 | 18810 ft | 418 kts | 144° |
| 2026-05-08 09:05 | -3.70284 | 14.86667 | 18275 ft | 415 kts | 144° |
| 2026-05-08 09:05 | -3.72649 | 14.88306 | 17738 ft | 412 kts | 144° |
| 2026-05-08 09:05 | -3.74994 | 14.89931 | 17203 ft | 408 kts | 144° |
| 2026-05-08 09:06 | -3.77319 | 14.91542 | 16662 ft | 405 kts | 144° |
| 2026-05-08 09:06 | -3.79629 | 14.93144 | 16121 ft | 402 kts | 144° |
| 2026-05-08 09:06 | -3.81893 | 14.94713 | 15587 ft | 400 kts | 143° |
| 2026-05-08 09:06 | -3.84170 | 14.96292 | 15048 ft | 397 kts | 143° |
| 2026-05-08 09:07 | -3.86432 | 14.97859 | 14515 ft | 394 kts | 143° |
| 2026-05-08 09:07 | -3.88679 | 14.99417 | 13981 ft | 392 kts | 143° |
| 2026-05-08 09:07 | -3.90910 | 15.00964 | 13461 ft | 389 kts | 143° |
| 2026-05-08 09:07 | -3.93127 | 15.02500 | 12946 ft | 386 kts | 143° |
| 2026-05-08 09:08 | -3.95323 | 15.04024 | 12435 ft | 383 kts | 143° |
| 2026-05-08 09:08 | -3.97510 | 15.05540 | 11916 ft | 381 kts | 143° |
| 2026-05-08 09:08 | -3.99678 | 15.07043 | 11504 ft | 375 kts | 143° |
| 2026-05-08 09:08 | -4.01783 | 15.08502 | 11426 ft | 361 kts | 144° |
| 2026-05-08 09:09 | -4.03809 | 15.09907 | 11344 ft | 348 kts | 144° |
| 2026-05-08 09:09 | -4.05765 | 15.11264 | 11261 ft | 336 kts | 144° |
| 2026-05-08 09:09 | -4.07651 | 15.12572 | 11173 ft | 324 kts | 144° |
| 2026-05-08 09:09 | -4.09473 | 15.13837 | 11090 ft | 313 kts | 144° |
| 2026-05-08 09:10 | -4.11233 | 15.15059 | 10985 ft | 304 kts | 144° |
| 2026-05-08 09:10 | -4.12962 | 15.16258 | 10678 ft | 302 kts | 144° |
| 2026-05-08 09:10 | -4.14686 | 15.17455 | 10341 ft | 301 kts | 144° |
| 2026-05-08 09:10 | -4.16394 | 15.18641 | 10131 ft | 295 kts | 144° |
| 2026-05-08 09:11 | -4.18055 | 15.19794 | 10046 ft | 285 kts | 144° |
| 2026-05-08 09:11 | -4.19665 | 15.20911 | 9866 ft | 279 kts | 144° |
| 2026-05-08 09:11 | -4.21259 | 15.22017 | 9553 ft | 279 kts | 144° |
| 2026-05-08 09:11 | -4.22851 | 15.23123 | 9245 ft | 278 kts | 144° |
| 2026-05-08 09:12 | -4.24349 | 15.24330 | 8942 ft | 276 kts | 137° |
| 2026-05-08 09:12 | -4.25491 | 15.25857 | 8626 ft | 278 kts | 115° |
| 2026-05-08 09:12 | -4.25865 | 15.27753 | 8333 ft | 281 kts | 89° |
| 2026-05-08 09:12 | -4.25488 | 15.29658 | 8066 ft | 278 kts | 74° |
| 2026-05-08 09:13 | -4.25043 | 15.31544 | 7756 ft | 279 kts | 81° |
| 2026-05-08 09:13 | -4.24963 | 15.33474 | 7451 ft | 276 kts | 95° |
| 2026-05-08 09:13 | -4.25252 | 15.35366 | 7173 ft | 275 kts | 98° |
| 2026-05-08 09:13 | -4.25383 | 15.37279 | 6887 ft | 275 kts | 92° |
| 2026-05-08 09:14 | -4.25367 | 15.39195 | 6593 ft | 275 kts | 88° |
| 2026-05-08 09:14 | -4.25221 | 15.41103 | 6295 ft | 274 kts | 85° |
| 2026-05-08 09:14 | -4.25114 | 15.43001 | 6001 ft | 272 kts | 89° |
| 2026-05-08 09:14 | -4.25102 | 15.44893 | 5706 ft | 272 kts | 91° |
| 2026-05-08 09:15 | -4.25122 | 15.46784 | 5409 ft | 271 kts | 91° |
| 2026-05-08 09:15 | -4.25152 | 15.48669 | 5120 ft | 270 kts | 91° |
| 2026-05-08 09:15 | -4.25154 | 15.50546 | 4869 ft | 268 kts | 90° |
| 2026-05-08 09:15 | -4.25145 | 15.52366 | 4824 ft | 255 kts | 90° |
| 2026-05-08 09:16 | -4.25142 | 15.54105 | 4739 ft | 244 kts | 90° |
| 2026-05-08 09:16 | -4.25140 | 15.55751 | 4703 ft | 230 kts | 90° |
| 2026-05-08 09:16 | -4.25138 | 15.57312 | 4615 ft | 218 kts | 90° |
| 2026-05-08 09:16 | -4.25238 | 15.58774 | 4546 ft | 202 kts | 102° |
| 2026-05-08 09:17 | -4.25787 | 15.60016 | 4512 ft | 190 kts | 123° |
| 2026-05-08 09:17 | -4.26726 | 15.60894 | 4430 ft | 185 kts | 153° |
| 2026-05-08 09:17 | -4.27982 | 15.60997 | 4318 ft | 185 kts | 193° |
| 2026-05-08 09:17 | -4.28998 | 15.60246 | 4236 ft | 185 kts | 231° |
| 2026-05-08 09:18 | -4.29584 | 15.59123 | 4082 ft | 185 kts | 243° |
| 2026-05-08 09:18 | -4.30179 | 15.57966 | 3790 ft | 187 kts | 242° |
| 2026-05-08 09:18 | -4.30777 | 15.56817 | 3532 ft | 184 kts | 242° |
| 2026-05-08 09:18 | -4.31373 | 15.55712 | 3303 ft | 176 kts | 240° |
| 2026-05-08 09:19 | -4.31983 | 15.54696 | 3075 ft | 163 kts | 238° |
| 2026-05-08 09:19 | -4.32580 | 15.53757 | 2885 ft | 157 kts | 237° |
| 2026-05-08 09:19 | -4.33167 | 15.52842 | 2664 ft | 156 kts | 237° |
| 2026-05-08 09:19 | -4.33750 | 15.51937 | 2443 ft | 154 kts | 237° |
| 2026-05-08 09:20 | -4.34336 | 15.51028 | 2239 ft | 157 kts | 237° |
| 2026-05-08 09:20 | -4.34932 | 15.50113 | 2031 ft | 157 kts | 237° |
| 2026-05-08 09:20 | -4.35525 | 15.49195 | 1819 ft | 156 kts | 237° |
| 2026-05-08 09:20 | -4.36109 | 15.48279 | 1609 ft | 156 kts | 237° |
| 2026-05-08 09:21 | -4.36697 | 15.47370 | 1407 ft | 155 kts | 237° |
| 2026-05-08 09:21 | -4.37276 | 15.46460 | 1208 ft | 155 kts | 237° |
| 2026-05-08 09:22 | -4.38863 | 15.44102 | 1012 ft | 5 kts | 146° |
| 2026-05-08 09:23 | -4.38891 | 15.44120 | 1012 ft | 5 kts | 147° |
| 2026-05-08 09:23 | -4.38917 | 15.44137 | 1012 ft | 4 kts | 147° |
| 2026-05-08 09:23 | -4.38943 | 15.44154 | 1012 ft | 6 kts | 147° |
| 2026-05-08 09:23 | -4.38959 | 15.44186 | 1012 ft | 5 kts | 80° |
| 2026-05-08 09:24 | -4.38950 | 15.44208 | 1012 ft | 5 kts | 64° |
| 2026-05-08 09:24 | -4.38925 | 15.44249 | 1012 ft | 11 kts | 58° |
| 2026-05-08 09:24 | -4.38867 | 15.44339 | 1012 ft | 11 kts | 57° |
| 2026-05-08 09:24 | -4.38827 | 15.44403 | 1012 ft | 10 kts | 57° |
| 2026-05-08 09:25 | -4.38789 | 15.44461 | 1012 ft | 10 kts | 57° |
| 2026-05-08 09:25 | -4.38754 | 15.44516 | 1012 ft | 9 kts | 57° |
| 2026-05-08 09:25 | -4.38725 | 15.44561 | 1012 ft | 6 kts | 57° |
| 2026-05-08 09:25 | -4.38715 | 15.44577 | 1012 ft | 3 kts | 57° |
| 2026-05-08 09:26 | -4.38713 | 15.44597 | 1012 ft | 3 kts | 109° |
| 2026-05-08 09:26 | -4.38724 | 15.44613 | 1012 ft | 3 kts | 133° |
| 2026-05-08 09:26 | -4.38732 | 15.44620 | 1012 ft | 0 kts | 140° |
| 2026-05-08 09:26 | -4.38733 | 15.44621 | 1012 ft | 0 kts | 140° |
| 2026-05-08 09:27 | -4.38741 | 15.44627 | 1012 ft | 1 kts | 144° |
| 2026-05-08 09:27 | -4.38742 | 15.44628 | 1012 ft | 0 kts | 147° |